• Join FlightAware (Why Join?)
  • Login
  • US Flag 
11:16AM EDT


 

Airport Tracker/Info


-or-


 

Live Flight TrackerFlight Track Log ✈ AMF1026 ✈ 21-Jun-2013 ✈ KALB - KCVG

Flight Track Log - Related Links

Times and Time Zones

All times are in EDT time to prevent confusion due to time zone crossing. See the AMF1026 flight status page for this flight to view local times or setup timezone preferences in your user account.

Time Position Orientation Groundspeed Altitude Reporting Facility
EDT Latitude Longitude Course Direction KTS MPH feet Rate Location/Type
08:56PM 42.7714 -73.8092 288° West 148 170 1,000  Level Boston Center
08:57PM 42.7853 -73.8658 288° West 184 212 2,600 1,560 Climbing Boston Center
08:59PM 42.7528 -73.9669 246° West 190 219 5,600 1,680 Climbing Boston Center
09:00PM 42.7436 -74.0317 259° West 190 219 7,200 1,620 Climbing Boston Center
09:01PM 42.7322 -74.1022 258° West 180 207 8,900 1,320 Climbing Boston Center
09:02PM 42.7333 -74.1586 272° West 180 207 9,900 1,200 Climbing Boston Center
09:03PM 42.7133 -74.2400 252° West 191 220 11,300 1,260 Climbing Boston Center
09:04PM 42.6917 -74.3017 244° Southwest 201 231 12,400 1,140 Climbing Boston Center
09:05PM 42.6653 -74.3742 244° Southwest 196 226 13,600 960 Climbing Boston Center
09:06PM 42.6456 -74.4358 247° West 196 226 14,400 780 Climbing Boston Center
09:07PM 42.6253 -74.5142 251° West 196 226 15,200 720 Climbing Boston Center
09:08PM 42.6136 -74.5786 256° West 202 232 15,900 360 Climbing Boston Center
09:09PM 42.5953 -74.6653 254° West 212 244 16,000  Climbing Boston Center
09:10PM 42.5856 -74.7439 260° West 225 259 16,000  Level Boston Center
09:11PM 42.5792 -74.8453 265° West 243 280 16,100  Climbing Boston Center
09:12PM 42.5586 -74.9292 252° West 248 285 16,000  Descending Boston Center
09:13PM 42.5236 -75.0094 239° Southwest 242 278 16,100  Climbing Boston Center
09:14PM 42.4925 -75.0925 243° Southwest 247 284 16,000 -60 Descending Boston Center
09:15PM 42.4819 -75.1767 260° West 247 284 16,000  Level Boston Center
09:16PM 42.4692 -75.2717 260° West 247 284 16,000  Level Boston Center
09:17PM 42.4381 -75.3519 242° Southwest 247 284 16,000  Level Boston Center
09:19PM 42.3586 -75.5328 239° Southwest 244 281 16,000  Level New York Center
09:20PM 42.3283 -75.6175 244° Southwest 244 281 16,000  Level New York Center
09:21PM 42.3142 -75.7061 258° West 244 281 16,000  Level New York Center
09:22PM 42.2839 -75.7850 243° Southwest 244 281 16,000  Level New York Center
09:23PM 42.2511 -75.8667 242° Southwest 244 281 16,000  Level New York Center
09:24PM 42.2125 -75.9447 236° Southwest 249 287 16,000  Level New York Center
09:25PM 42.1819 -76.0236 242° Southwest 249 287 16,000  Level New York Center
09:26PM 42.1633 -76.1117 254° West 244 281 16,000  Level New York Center
09:27PM 42.1389 -76.1936 248° West 244 281 16,000  Level New York Center
09:28PM 42.1081 -76.2747 243° Southwest 244 281 16,000  Level New York Center
09:29PM 42.0753 -76.3558 241° Southwest 249 287 16,000 -60 Level New York Center
09:30PM 42.0422 -76.4342 240° Southwest 255 293 15,900 -60 Descending New York Center
09:31PM 42.0114 -76.5181 244° Southwest 255 293 15,900  Level New York Center
09:32PM 41.9842 -76.6022 247° West 255 293 15,900  Level New York Center
09:33PM 41.9550 -76.6861 245° Southwest 255 293 15,900  Level New York Center
09:34PM 41.9261 -76.7672 244° Southwest 255 293 15,900  Level New York Center
09:35PM 41.8950 -76.8481 243° Southwest 255 293 15,900  Level New York Center
09:36PM 41.8656 -76.9317 245° Southwest 255 293 15,900  Level New York Center
09:38PM 41.8244 -77.0525 245° Southwest 255 293 15,900  Level Cleveland Center
09:39PM 41.7978 -77.1375 247° West 255 293 15,900  Level Cleveland Center
09:40PM 41.7733 -77.2250 249° West 255 293 15,900  Level Cleveland Center
09:41PM 41.7467 -77.3156 248° West 250 288 15,900  Level Cleveland Center
09:42PM 41.7219 -77.4003 249° West 250 288 15,900  Level Cleveland Center
09:43PM 41.6972 -77.4878 249° West 255 293 15,900  Level Cleveland Center
09:44PM 41.6683 -77.5697 245° Southwest 255 293 16,000  Climbing Cleveland Center
09:45PM 41.6328 -77.6519 240° Southwest 255 293 16,000  Level Cleveland Center
09:46PM 41.5972 -77.7314 239° Southwest 255 293 16,000  Level Cleveland Center
09:47PM 41.5639 -77.8133 241° Southwest 255 293 16,000  Level Cleveland Center
09:48PM 41.5344 -77.8950 244° Southwest 250 288 16,000  Level Cleveland Center
09:49PM 41.5092 -77.9739 247° West 250 288 16,000  Level Cleveland Center
09:50PM 41.4861 -78.0581 250° West 250 288 16,000  Level Cleveland Center
09:51PM 41.4672 -78.1472 254° West 250 288 16,000  Level Cleveland Center
09:52PM 41.4419 -78.2342 249° West 250 288 16,000  Level Cleveland Center
09:53PM 41.4164 -78.3153 247° West 250 288 16,000  Level Cleveland Center
09:54PM 41.3847 -78.4022 244° Southwest 255 293 16,000  Level Cleveland Center
09:55PM 41.3550 -78.4864 245° Southwest 255 293 16,000  Level Cleveland Center
09:56PM 41.3336 -78.5756 252° West 255 293 16,000  Level Cleveland Center
09:57PM 41.3144 -78.6617 254° West 255 293 16,000  Level Cleveland Center
09:58PM 41.2867 -78.7483 247° West 250 288 16,000  Level Cleveland Center
09:59PM 41.2608 -78.8319 248° West 250 288 16,000  Level Cleveland Center
10:00PM 41.2350 -78.9153 248° West 250 288 16,000  Level Cleveland Center
10:01PM 41.2008 -79.0044 243° Southwest 250 288 16,000  Level Cleveland Center
10:02PM 41.1747 -79.0908 248° West 250 288 16,000  Level Cleveland Center
10:03PM 41.1467 -79.1714 245° Southwest 250 288 16,000  Level Cleveland Center
10:04PM 41.1206 -79.2464 245° Southwest 255 293 16,000  Level Cleveland Center
10:05PM 41.0900 -79.3269 243° Southwest 255 293 16,000  Level Cleveland Center
10:06PM 41.0597 -79.4128 245° Southwest 255 293 16,000  Level Cleveland Center
10:07PM 41.0378 -79.4986 251° West 255 293 16,000  Level Cleveland Center
10:08PM 41.0175 -79.5842 253° West 250 288 16,000  Level Cleveland Center
10:09PM 40.9994 -79.6725 255° West 250 288 16,000  Level Cleveland Center
10:10PM 40.9814 -79.7608 255° West 244 281 16,000  Level Cleveland Center
10:11PM 40.9611 -79.8461 253° West 244 281 16,000  Level Cleveland Center
10:12PM 40.9283 -79.9264 242° Southwest 244 281 16,000  Level Cleveland Center
10:13PM 40.8953 -80.0064 241° Southwest 249 287 16,000  Level Cleveland Center
10:14PM 40.8583 -80.0836 238° Southwest 254 292 16,000  Level Cleveland Center
10:15PM 40.8314 -80.1686 247° West 254 292 16,000  Level Cleveland Center
10:16PM 40.8108 -80.2567 253° West 248 285 16,000  Level Cleveland Center
10:17PM 40.7672 -80.3308 232° Southwest 248 285 16,000  Level Cleveland Center
10:18PM 40.7194 -80.4106 232° Southwest 260 299 16,000  Level Cleveland Center
10:19PM 40.6717 -80.4844 230° Southwest 265 305 16,000  Level Cleveland Center
10:20PM 40.6342 -80.5611 237° Southwest 259 298 16,000  Level Cleveland Center
10:21PM 40.5925 -80.6294 231° Southwest 249 287 16,000  Level Cleveland Center
10:22PM 40.5486 -80.7033 232° Southwest 244 281 16,000  Level Cleveland Center
10:23PM 40.5047 -80.7742 231° Southwest 250 288 16,000  Level Cleveland Center
10:24PM 40.4589 -80.8450 230° Southwest 255 293 16,000  Level Cleveland Center
10:25PM 40.4147 -80.9186 232° Southwest 255 293 16,000  Level Cleveland Center
10:26PM 40.3750 -80.9947 236° Southwest 255 293 16,000 -60 Level Cleveland Center
10:27PM 40.3372 -81.0733 238° Southwest 260 299 15,900 -120 Descending Cleveland Center
10:28PM 40.3142 -81.1269 241° Southwest 256 295 15,900  Level Indianapolis Center
10:29PM 40.2794 -81.2111 242° Southwest 260 299 15,900  Level Indianapolis Center
10:30PM 40.2481 -81.2967 244° Southwest 259 298 16,000  Climbing Indianapolis Center
10:31PM 40.2206 -81.3836 248° West 257 296 16,000  Level Indianapolis Center
10:32PM 40.1942 -81.4711 248° West 256 295 16,000  Level Indianapolis Center
10:33PM 40.1675 -81.5597 249° West 260 299 16,000  Level Indianapolis Center
10:34PM 40.1425 -81.6428 249° West 256 295 16,000  Level Indianapolis Center
10:35PM 40.1144 -81.7358 249° West 259 298 16,000  Level Indianapolis Center
10:36PM 40.0897 -81.8197 249° West 260 299 16,000  Level Indianapolis Center
10:37PM 40.0642 -81.9083 249° West 260 299 16,000  Level Indianapolis Center
10:38PM 40.0378 -81.9961 249° West 258 297 16,000  Level Indianapolis Center
10:39PM 40.0072 -82.1000 249° West 261 300 16,000  Level Indianapolis Center
10:40PM 39.9817 -82.1892 250° West 261 300 16,000  Level Indianapolis Center
10:41PM 39.9561 -82.2786 250° West 262 302 16,000  Level Indianapolis Center
10:42PM 39.9289 -82.3675 248° West 262 302 16,000  Level Indianapolis Center
10:43PM 39.9039 -82.4556 250° West 260 299 16,000  Level Indianapolis Center
10:44PM 39.8789 -82.5453 250° West 261 300 16,000  Level Indianapolis Center
10:45PM 39.8503 -82.6317 247° West 259 298 16,000  Level Indianapolis Center
10:46PM 39.8192 -82.7186 245° Southwest 261 300 16,000  Level Indianapolis Center
10:47PM 39.7867 -82.8014 243° Southwest 257 296 16,000  Level Indianapolis Center
10:48PM 39.7511 -82.8864 241° Southwest 262 302 16,000  Level Indianapolis Center
10:49PM 39.7158 -82.9683 241° Southwest 258 297 16,000  Level Indianapolis Center
10:50PM 39.6781 -83.0503 239° Southwest 261 300 16,000  Level Indianapolis Center
10:51PM 39.6397 -83.1333 239° Southwest 264 304 16,000  Level Indianapolis Center
10:52PM 39.6014 -83.2167 239° Southwest 265 305 16,000  Level Indianapolis Center
10:53PM 39.5633 -83.2975 239° Southwest 261 300 16,000  Level Indianapolis Center
10:54PM 39.5258 -83.3808 240° Southwest 263 303 16,000  Level Indianapolis Center
10:55PM 39.4914 -83.4656 242° Southwest 264 304 16,000 -360 Level Indianapolis Center
10:56PM 39.4600 -83.5539 245° Southwest 265 305 15,300 -720 Descending Indianapolis Center
10:57PM 39.4272 -83.6489 246° West 279 321 14,600 -900 Descending Indianapolis Center
10:58PM 39.3917 -83.7408 243° Southwest 284 327 13,500 -1,140 Descending Indianapolis Center
10:59PM 39.3611 -83.8381 248° West 288 331 12,400 -1,140 Descending Indianapolis Center
11:00PM 39.3283 -83.9294 245° Southwest 281 323 11,300 -900 Descending Indianapolis Center
11:01PM 39.2931 -84.0108 241° Southwest 262 302 10,600 -1,080 Descending Indianapolis Center
11:02PM 39.2569 -84.0894 239° Southwest 253 291 9,200 -1,320 Descending Indianapolis Center
11:03PM 39.2239 -84.1661 241° Southwest 247 284 8,000 -1,320 Descending Indianapolis Center
11:05PM 39.1667 -84.3333 246° West 243 280 5,500 -1,020 Descending Cincinnati TRACON
11:06PM 39.1333 -84.4000 237° Southwest 232 267 5,100 -780 Descending Cincinnati TRACON
11:07PM 39.1000 -84.4667 237° Southwest 224 258 4,000 -720 Descending Cincinnati TRACON
11:08PM 39.0500 -84.5167 218° Southwest 200 230 3,700 -540 Descending Cincinnati TRACON
11:09PM 39.0000 -84.5500 207° Southwest 196 226 3,000 -720 Descending Cincinnati TRACON
11:10PM 38.9833 -84.6000 247° West 136 157 2,300 -600 Descending Cincinnati TRACON
11:11PM 38.9833 -84.6500 270° West 131 151 1,800 -600 Descending Cincinnati TRACON
11:12PM 39.0167 -84.6667 339° North 143 165 1,200 -600 Descending Cincinnati TRACON
11:14PM 39.0333 -84.6667 247° West  Level FlightAware Approximate